createdAt,value
2023-02-22T00:02:48.404Z,7.25
2023-02-22T00:07:51.632Z,7.24
2023-02-22T00:12:56.339Z,7.17
2023-02-22T00:18:00.555Z,7.13
2023-02-22T00:23:07.087Z,6.95
2023-02-22T00:28:09.840Z,6.97
2023-02-22T00:33:14.744Z,6.98
2023-02-22T00:38:19.356Z,6.96
2023-02-22T00:43:22.191Z,6.93
2023-02-22T00:48:26.541Z,6.96
2023-02-22T00:53:29.274Z,6.95
2023-02-22T00:58:32.144Z,6.97
2023-02-22T01:03:39.574Z,6.92
2023-02-22T01:08:45.514Z,7.09
2023-02-22T01:13:48.786Z,6.99
2023-02-22T01:18:53.095Z,7.08
2023-02-22T01:23:56.881Z,6.97
2023-02-22T01:28:59.616Z,7.01
2023-02-22T01:34:04.073Z,6.88
2023-02-22T01:39:07.328Z,6.74
2023-02-22T01:44:26.157Z,6.67
2023-02-22T01:49:34.635Z,6.67
2023-02-22T01:54:40.212Z,6.67
2023-02-22T01:59:52.813Z,6.81
2023-02-22T02:04:59.295Z,6.74
2023-02-22T02:10:04.676Z,6.76
2023-02-22T02:15:22.402Z,6.54
2023-02-22T02:20:30.934Z,6.51
2023-02-22T02:25:54.160Z,6.31
2023-02-22T02:31:38.672Z,6.30
2023-02-22T02:36:48.322Z,6.46
2023-02-22T02:41:52.927Z,6.36
2023-02-22T02:46:59.263Z,6.01
2023-02-22T02:52:04.680Z,6.03
2023-02-22T02:57:09.349Z,6.06
2023-02-22T03:02:23.727Z,6.00
2023-02-22T03:07:38.844Z,5.91
2023-02-22T03:12:46.779Z,5.83
2023-02-22T03:17:55.391Z,5.66
2023-02-22T03:23:03.530Z,5.51
2023-02-22T03:28:11.462Z,5.38
2023-02-22T03:33:20.307Z,5.30
2023-02-22T03:38:26.679Z,5.25
2023-02-22T03:43:33.096Z,5.14
2023-02-22T03:48:44.682Z,5.09
2023-02-22T03:53:48.983Z,5.05
2023-02-22T03:58:53.133Z,4.83
2023-02-22T04:03:55.855Z,4.84
2023-02-22T04:09:00.131Z,4.93
2023-02-22T04:14:03.247Z,4.64
2023-02-22T04:19:06.226Z,4.50
2023-02-22T04:24:13.083Z,4.49
2023-02-22T04:29:18.206Z,4.18
2023-02-22T04:34:21.476Z,4.39
2023-02-22T04:39:26.602Z,4.01
2023-02-22T04:44:30.096Z,4.19
2023-02-22T04:49:33.628Z,4.22
2023-02-22T04:54:38.968Z,3.87
2023-02-22T04:59:42.617Z,4.06
2023-02-22T05:04:47.859Z,4.10
2023-02-22T05:09:52.001Z,3.96
2023-02-22T05:14:54.862Z,3.77
2023-02-22T05:19:57.592Z,3.78
2023-02-22T05:25:01.774Z,3.81
2023-02-22T05:30:05.117Z,3.66
2023-02-22T05:35:08.391Z,3.62
2023-02-22T05:40:14.374Z,3.61
2023-02-22T05:45:18.870Z,3.51
2023-02-22T05:50:22.412Z,3.55
2023-02-22T05:55:27.942Z,3.36
2023-02-22T06:00:32.734Z,3.39
2023-02-22T06:05:36.364Z,3.46
2023-02-22T06:10:40.911Z,3.58
2023-02-22T06:15:43.724Z,3.56
2023-02-22T06:20:46.491Z,3.52
2023-02-22T06:25:50.655Z,3.32
2023-02-22T06:30:53.449Z,3.47
2023-02-22T06:35:56.223Z,3.54
2023-02-22T06:41:00.293Z,3.60
2023-02-22T06:46:03.241Z,3.69
2023-02-22T06:51:08.209Z,3.74
2023-02-22T06:56:12.246Z,3.79
2023-02-22T07:01:15.234Z,3.68
2023-02-22T07:06:18.816Z,3.79
2023-02-22T07:11:24.324Z,3.97
2023-02-22T07:16:27.056Z,3.95
2023-02-22T07:21:30.793Z,4.06
2023-02-22T07:26:40.052Z,4.16
2023-02-22T07:31:42.743Z,4.22
2023-02-22T07:36:45.493Z,4.33
2023-02-22T07:41:49.785Z,4.49
2023-02-22T07:46:59.416Z,4.72
2023-02-22T07:52:02.249Z,5.63
2023-02-22T07:57:06.417Z,6.87
2023-02-22T08:02:16.619Z,6.92
2023-02-22T08:07:19.405Z,6.12
2023-02-22T08:12:24.086Z,6.09
2023-02-22T08:17:26.801Z,6.93
2023-02-22T08:22:29.923Z,7.25
2023-02-22T08:27:34.317Z,7.63
2023-02-22T08:32:37.124Z,7.62
2023-02-22T08:37:43.513Z,7.29
2023-02-22T08:42:47.704Z,7.97
2023-02-22T08:47:51.055Z,7.95
2023-02-22T08:52:53.859Z,7.97
2023-02-22T08:57:57.921Z,8.26
2023-02-22T09:03:00.947Z,8.03
2023-02-22T09:08:04.271Z,8.35
2023-02-22T09:13:08.331Z,8.53
2023-02-22T09:18:14.384Z,9.02
2023-02-22T09:23:17.041Z,7.91
2023-02-22T09:28:21.125Z,7.92
2023-02-22T09:33:26.013Z,8.00
2023-02-22T09:38:30.071Z,8.02
2023-02-22T09:43:40.531Z,8.18
2023-02-22T09:48:52.966Z,8.18
2023-02-22T09:53:58.929Z,8.45
2023-02-22T09:59:04.962Z,8.67
2023-02-22T10:04:12.625Z,8.92
2023-02-22T10:09:15.686Z,9.25
2023-02-22T10:14:43.561Z,9.29
2023-02-22T10:19:55.100Z,9.99
2023-02-22T10:25:01.157Z,10.16
2023-02-22T10:30:22.362Z,10.13
2023-02-22T10:35:28.802Z,10.49
2023-02-22T10:40:34.568Z,10.48
2023-02-22T10:45:38.882Z,10.59
2023-02-22T10:50:43.438Z,10.61
2023-02-22T10:56:07.690Z,10.90
2023-02-22T11:01:21.592Z,11.08
2023-02-22T11:06:24.335Z,11.10
2023-02-22T11:11:29.160Z,11.20
2023-02-22T11:16:34.609Z,11.27
2023-02-22T11:21:37.471Z,11.48
2023-02-22T11:26:43.721Z,11.50
2023-02-22T11:31:49.177Z,11.67
2023-02-22T11:36:51.956Z,11.78
2023-02-22T11:41:56.861Z,11.98
2023-02-22T11:47:06.826Z,11.92
2023-02-22T11:52:23.017Z,12.24
2023-02-22T11:57:46.572Z,12.35
2023-02-22T12:03:00.913Z,12.31
2023-02-22T12:08:19.989Z,12.61
2023-02-22T12:13:32.985Z,12.57
2023-02-22T12:18:40.887Z,12.57
2023-02-22T12:23:47.087Z,12.66
2023-02-22T12:28:59.259Z,12.74
2023-02-22T12:34:09.430Z,12.89
2023-02-22T12:39:51.762Z,12.92
2023-02-22T12:44:59.724Z,13.00
2023-02-22T12:50:08.362Z,13.18
2023-02-22T12:55:13.882Z,13.28
2023-02-22T13:00:20.210Z,13.33
2023-02-22T13:05:24.114Z,13.36
2023-02-22T13:10:52.698Z,13.34
2023-02-22T13:15:59.835Z,13.54
2023-02-22T13:21:07.871Z,13.68
2023-02-22T13:26:16.053Z,13.85
2023-02-22T13:31:35.996Z,13.98
2023-02-22T13:36:52.495Z,13.98
2023-02-22T13:42:15.134Z,14.00
2023-02-22T13:47:38.139Z,13.92
2023-02-22T13:52:42.675Z,14.18
2023-02-22T13:57:48.709Z,14.05
2023-02-22T14:03:01.280Z,14.01
2023-02-22T14:08:05.690Z,13.99
2023-02-22T14:13:08.862Z,14.19
2023-02-22T14:18:17.581Z,14.29
2023-02-22T14:23:30.867Z,14.10
2023-02-22T14:28:38.826Z,14.19
2023-02-22T14:34:10.595Z,14.16
2023-02-22T14:39:20.882Z,14.07
2023-02-22T14:44:30.381Z,14.10
2023-02-22T14:49:37.995Z,14.06
2023-02-22T14:54:52.096Z,14.07
2023-02-22T15:00:09.039Z,14.01
2023-02-22T15:05:14.222Z,14.11
2023-02-22T15:10:22.056Z,14.07
2023-02-22T15:15:27.442Z,13.96
2023-02-22T15:20:30.413Z,13.98
2023-02-22T15:25:37.544Z,13.81
2023-02-22T15:30:40.433Z,13.62
2023-02-22T15:35:43.484Z,13.67
2023-02-22T15:40:50.667Z,13.50
2023-02-22T15:45:53.561Z,13.47
2023-02-22T15:51:06.799Z,13.32
2023-02-22T15:56:14.825Z,13.17
2023-02-22T16:01:19.641Z,13.07
2023-02-22T16:06:29.525Z,12.97
2023-02-22T16:11:38.373Z,12.84
2023-02-22T16:16:43.149Z,12.66
2023-02-22T16:21:54.434Z,12.48
2023-02-22T16:27:07.892Z,12.32
2023-02-22T16:32:11.508Z,12.33
2023-02-22T16:37:23.176Z,12.16
2023-02-22T16:42:27.221Z,12.07
2023-02-22T16:47:29.917Z,12.00
2023-02-22T16:52:32.641Z,11.89
2023-02-22T16:57:38.166Z,11.75
2023-02-22T17:02:41.143Z,11.58
2023-02-22T17:07:44.050Z,11.47
2023-02-22T17:12:49.709Z,11.34
2023-02-22T17:17:54.109Z,11.28
2023-02-22T17:22:58.788Z,11.23
2023-02-22T17:28:02.917Z,11.12
2023-02-22T17:33:07.671Z,11.08
2023-02-22T17:38:10.926Z,11.04
2023-02-22T17:43:16.788Z,11.02
2023-02-22T17:48:20.165Z,11.09
2023-02-22T17:53:25.315Z,11.07
2023-02-22T17:58:30.884Z,11.08
2023-02-22T18:03:39.381Z,11.07
2023-02-22T18:08:42.115Z,11.02
2023-02-22T18:13:46.217Z,11.05
2023-02-22T18:18:49.635Z,11.00
2023-02-22T18:23:52.665Z,10.91
2023-02-22T18:28:56.777Z,10.73
2023-02-22T18:33:59.418Z,10.74
2023-02-22T18:39:03.184Z,10.58
2023-02-22T18:44:10.342Z,10.49
2023-02-22T18:49:14.156Z,10.41
2023-02-22T18:54:16.896Z,10.38
2023-02-22T18:59:20.937Z,10.32
2023-02-22T19:04:25.049Z,10.21
2023-02-22T19:09:27.879Z,10.17
2023-02-22T19:14:31.976Z,10.16
2023-02-22T19:19:34.940Z,10.06
2023-02-22T19:24:39.785Z,10.07
2023-02-22T19:29:43.832Z,9.98
2023-02-22T19:34:46.966Z,9.89
2023-02-22T19:39:49.730Z,9.80
2023-02-22T19:44:54.283Z,9.76
2023-02-22T19:49:59.638Z,9.65
2023-02-22T19:55:03.308Z,9.62
2023-02-22T20:00:11.382Z,9.44
2023-02-22T20:05:16.413Z,9.41
2023-02-22T20:10:19.669Z,9.43
2023-02-22T20:15:24.052Z,9.26
2023-02-22T20:20:28.411Z,9.21
2023-02-22T20:25:32.357Z,9.02
2023-02-22T20:30:37.815Z,8.96
2023-02-22T20:35:40.927Z,8.92
2023-02-22T20:40:44.248Z,8.80
2023-02-22T20:45:48.460Z,8.64
2023-02-22T20:50:51.202Z,8.68
2023-02-22T20:55:55.656Z,8.64
2023-02-22T21:01:05.740Z,8.70
2023-02-22T21:06:09.880Z,8.60
2023-02-22T21:11:13.959Z,8.64
2023-02-22T21:16:19.772Z,8.57
2023-02-22T21:21:23.257Z,8.53
2023-02-22T21:26:28.758Z,8.08
2023-02-22T21:31:34.454Z,8.35
2023-02-22T21:36:38.830Z,8.38
2023-02-22T21:41:41.634Z,8.29
2023-02-22T21:46:48.649Z,8.18
2023-02-22T21:51:52.603Z,8.14
2023-02-22T21:56:55.394Z,8.02
2023-02-22T22:01:59.504Z,8.11
2023-02-22T22:07:03.846Z,8.21
2023-02-22T22:12:10.106Z,8.10
2023-02-22T22:17:14.020Z,8.13
2023-02-22T22:22:16.775Z,8.15
2023-02-22T22:27:19.594Z,8.20
2023-02-22T22:32:24.423Z,8.25
2023-02-22T22:37:27.920Z,8.26
2023-02-22T22:42:30.666Z,8.21
2023-02-22T22:47:36.975Z,8.17
2023-02-22T22:52:39.522Z,8.04
2023-02-22T22:57:42.934Z,8.12
2023-02-22T23:02:48.564Z,8.15
2023-02-22T23:07:51.655Z,8.22
2023-02-22T23:12:55.204Z,8.19
2023-02-22T23:17:59.289Z,8.25
2023-02-22T23:23:02.712Z,8.28
2023-02-22T23:28:14.502Z,8.33
2023-02-22T23:33:18.614Z,8.31
2023-02-22T23:38:21.324Z,8.31
2023-02-22T23:43:25.468Z,8.41
2023-02-22T23:48:30.478Z,8.43
2023-02-22T23:53:33.332Z,8.45
2023-02-22T23:58:36.039Z,8.38
